Time;durP1;ratioP1;P1;durP2;ratioP2;P2;SDS_P1;SDS_P2;PMS_P1;PMS_P2;Temp;Humidity;BMP_temperature;BMP_pressure;BME280_temperature;BME280_humidity;BME280_pressure;Samples;Min_cycle;Max_cycle;Signal;HPM_P1;HPM_P2
2023/11/24 00:01:01;;;;;;;0.10;0.10;;;4.50;99.90;;;;;;5045717;28;20087;-75
2023/11/24 00:03:26;;;;;;;0.10;0.10;;;4.50;99.90;;;;;;5043325;28;20116;-74
2023/11/24 00:05:52;;;;;;;0.10;0.10;;;4.40;99.90;;;;;;5040544;28;20085;-75
2023/11/24 00:08:17;;;;;;;0.10;0.10;;;4.50;99.90;;;;;;5043000;28;20024;-75
2023/11/24 00:10:43;;;;;;;0.10;0.10;;;4.50;99.90;;;;;;5037126;28;20029;-75
2023/11/24 00:13:10;;;;;;;0.10;0.10;;;4.50;99.90;;;;;;5042188;28;20021;-75
2023/11/24 00:15:37;;;;;;;0.10;0.10;;;4.50;99.90;;;;;;5046786;28;20195;-76
2023/11/24 00:18:03;;;;;;;0.00;0.00;;;4.50;99.90;;;;;;5046752;28;20028;-75
2023/11/24 00:20:31;;;;;;;0.10;0.10;;;4.60;99.90;;;;;;5039495;28;20036;-75
2023/11/24 00:22:56;;;;;;;0.10;0.10;;;4.50;99.90;;;;;;5045869;28;20036;-74
2023/11/24 00:25:23;;;;;;;0.10;0.10;;;4.60;99.90;;;;;;5047119;28;20136;-75
2023/11/24 00:27:51;;;;;;;0.10;0.10;;;4.50;99.90;;;;;;5046726;28;20047;-75
2023/11/24 00:30:17;;;;;;;0.10;0.10;;;4.50;99.90;;;;;;5046320;28;20043;-75
2023/11/24 00:32:45;;;;;;;0.10;0.10;;;4.50;99.90;;;;;;5046200;28;20032;-75
2023/11/24 00:35:10;;;;;;;;;;;4.40;99.90;;;;;;5043677;28;20140;-75
2023/11/24 00:37:36;;;;;;;0.10;0.10;;;4.40;99.90;;;;;;5043212;28;20039;-75
2023/11/24 00:40:02;;;;;;;0.10;0.10;;;4.40;99.90;;;;;;5045155;28;20155;-75
2023/11/24 00:42:29;;;;;;;0.20;0.20;;;4.40;99.90;;;;;;5042482;28;20052;-74
2023/11/24 00:44:55;;;;;;;0.10;0.10;;;4.40;99.90;;;;;;5046474;28;20112;-74
2023/11/24 00:47:20;;;;;;;0.10;0.10;;;4.40;99.90;;;;;;5037027;28;20998;-74
2023/11/24 00:49:48;;;;;;;0.10;0.10;;;4.40;99.90;;;;;;5045791;28;20029;-74
2023/11/24 00:52:14;;;;;;;0.10;0.10;;;4.50;99.90;;;;;;5044299;28;20028;-74
2023/11/24 00:54:40;;;;;;;0.03;0.03;;;4.50;99.90;;;;;;5042504;28;20033;-74
2023/11/24 00:57:06;;;;;;;0.10;0.10;;;4.60;99.90;;;;;;5045423;28;20071;-75
2023/11/24 00:59:31;;;;;;;0.10;0.10;;;4.50;99.90;;;;;;5042331;28;20033;-74
2023/11/24 01:01:57;;;;;;;0.10;0.10;;;4.70;99.90;;;;;;5037290;28;20079;-75
2023/11/24 01:04:22;;;;;;;0.10;0.10;;;5.00;99.90;;;;;;5043863;28;20041;-75
2023/11/24 01:06:48;;;;;;;0.10;0.10;;;5.20;99.90;;;;;;5042472;28;20286;-75
2023/11/24 01:09:14;;;;;;;0.10;0.10;;;5.20;99.90;;;;;;5038647;28;20700;-75
2023/11/24 01:11:39;;;;;;;0.43;0.43;;;5.30;99.90;;;;;;5046282;28;20038;-75
2023/11/24 01:14:05;;;;;;;0.10;0.10;;;5.40;99.90;;;;;;5042111;28;20043;-74
2023/11/24 01:16:31;;;;;;;0.10;0.10;;;5.50;99.90;;;;;;5044938;28;20075;-75
2023/11/24 01:18:59;;;;;;;0.10;0.10;;;5.60;99.90;;;;;;5041382;28;20029;-75
2023/11/24 01:21:25;;;;;;;0.17;0.17;;;5.80;99.90;;;;;;5042802;28;20063;-74
2023/11/24 01:23:51;;;;;;;0.20;0.20;;;5.90;99.90;;;;;;5046108;28;20108;-74
2023/11/24 01:26:17;;;;;;;0.10;0.10;;;5.90;99.90;;;;;;5037161;28;20121;-74
2023/11/24 01:28:43;;;;;;;0.10;0.10;;;5.90;99.90;;;;;;5043042;28;20042;-74
2023/11/24 01:31:09;;;;;;;0.10;0.10;;;6.00;99.90;;;;;;5045881;28;20147;-75
2023/11/24 01:33:36;;;;;;;0.10;0.10;;;6.00;99.90;;;;;;5039737;28;20068;-74
2023/11/24 01:36:02;;;;;;;0.20;0.20;;;6.10;99.90;;;;;;5038135;28;20064;-75
2023/11/24 01:38:28;;;;;;;0.10;0.10;;;6.10;99.90;;;;;;5044342;28;20037;-75
2023/11/24 01:40:54;;;;;;;0.10;0.10;;;6.10;99.90;;;;;;5045236;28;20031;-74
2023/11/24 01:43:19;;;;;;;0.10;0.10;;;6.10;99.90;;;;;;5045240;28;20051;-75
2023/11/24 01:45:45;;;;;;;0.10;0.10;;;6.10;99.90;;;;;;5045708;28;20040;-74
2023/11/24 01:48:15;;;;;;;0.10;0.10;;;6.10;99.90;;;;;;5045744;28;20031;-74
2023/11/24 01:50:41;;;;;;;0.10;0.10;;;6.20;99.90;;;;;;5045693;28;20040;-75
2023/11/24 01:53:07;;;;;;;0.10;0.10;;;6.20;99.90;;;;;;5039658;28;20913;-75
2023/11/24 01:55:32;;;;;;;0.10;0.10;;;6.30;99.90;;;;;;5046561;28;20247;-75
2023/11/24 01:57:58;;;;;;;0.10;0.10;;;6.30;99.90;;;;;;5051578;28;20040;-75
2023/11/24 02:00:25;;;;;;;0.10;0.10;;;6.30;99.90;;;;;;5047251;28;20035;-75
2023/11/24 02:02:51;;;;;;;0.10;0.10;;;6.40;99.90;;;;;;5045491;28;20030;-76
2023/11/24 02:05:18;;;;;;;0.10;0.10;;;6.40;99.90;;;;;;5052205;28;20456;-76
2023/11/24 02:07:44;;;;;;;0.10;0.10;;;6.40;99.90;;;;;;5047708;28;20060;-75
2023/11/24 02:10:12;;;;;;;0.03;0.03;;;6.40;99.90;;;;;;5045480;28;20507;-75
2023/11/24 02:12:38;;;;;;;0.10;0.10;;;6.50;99.90;;;;;;5049150;28;20396;-75
2023/11/24 02:15:06;;;;;;;0.10;0.10;;;6.50;99.90;;;;;;5045763;28;20136;-75
2023/11/24 02:17:32;;;;;;;0.10;0.10;;;6.50;99.90;;;;;;5044817;28;20069;-75
2023/11/24 02:19:58;;;;;;;0.10;0.10;;;6.40;99.90;;;;;;5045908;28;20053;-76
2023/11/24 02:22:25;;;;;;;0.28;0.28;;;6.50;99.90;;;;;;5046898;28;20912;-76
2023/11/24 02:24:51;;;;;;;0.10;0.10;;;6.40;99.90;;;;;;5047448;28;20083;-75
2023/11/24 02:27:20;;;;;;;0.10;0.10;;;6.40;99.90;;;;;;5046317;28;20028;-75
2023/11/24 02:29:48;;;;;;;0.22;0.22;;;6.30;99.90;;;;;;5047825;28;20037;-75
2023/11/24 02:32:13;;;;;;;0.10;0.10;;;6.20;99.90;;;;;;5052410;28;20082;-75
2023/11/24 02:34:39;;;;;;;0.10;0.10;;;6.10;99.90;;;;;;5036435;28;20151;-75
2023/11/24 02:37:06;;;;;;;0.10;0.10;;;6.10;99.90;;;;;;5049576;28;20033;-75
2023/11/24 02:39:32;;;;;;;0.10;0.10;;;6.10;99.90;;;;;;5050066;28;20222;-76
2023/11/24 02:41:58;;;;;;;0.10;0.10;;;6.00;99.90;;;;;;5051850;28;20029;-75
2023/11/24 02:44:25;;;;;;;0.10;0.10;;;5.90;99.90;;;;;;5042111;28;20111;-75
2023/11/24 02:46:51;;;;;;;0.10;0.10;;;6.00;99.90;;;;;;5048158;28;20033;-75
2023/11/24 02:49:17;;;;;;;0.10;0.10;;;6.10;99.90;;;;;;5045543;28;20481;-75
2023/11/24 02:51:43;;;;;;;0.10;0.10;;;6.10;99.90;;;;;;5050601;28;20037;-74
2023/11/24 02:54:10;;;;;;;0.10;0.10;;;6.10;99.90;;;;;;5049080;28;20057;-75
2023/11/24 02:56:36;;;;;;;0.10;0.10;;;6.20;99.90;;;;;;5049580;28;20033;-75
2023/11/24 02:59:02;;;;;;;0.20;0.20;;;6.30;99.90;;;;;;5047181;28;20036;-77
2023/11/24 03:01:28;;;;;;;2.50;2.33;;;6.30;99.90;;;;;;5050077;28;20040;-76
2023/11/24 03:03:54;;;;;;;0.10;0.10;;;6.40;99.90;;;;;;5048560;28;20029;-74
2023/11/24 03:06:20;;;;;;;0.10;0.10;;;6.50;99.90;;;;;;5048007;28;20039;-75
2023/11/24 03:08:45;;;;;;;0.20;0.20;;;6.50;99.90;;;;;;5048596;28;20112;-75
2023/11/24 03:11:11;;;;;;;0.10;0.10;;;6.60;99.90;;;;;;5048517;28;20108;-75
2023/11/24 03:13:37;;;;;;;0.10;0.10;;;6.50;99.90;;;;;;5046652;28;20087;-74
2023/11/24 03:16:05;;;;;;;0.10;0.10;;;6.50;99.90;;;;;;5042415;28;20134;-75
2023/11/24 03:18:31;;;;;;;0.10;0.10;;;6.60;99.90;;;;;;5045361;28;20799;-75
2023/11/24 03:20:57;;;;;;;0.10;0.10;;;6.70;99.90;;;;;;5038517;28;20128;-76
2023/11/24 03:23:23;;;;;;;0.22;0.22;;;6.70;99.90;;;;;;5042985;28;20034;-75
2023/11/24 03:25:49;;;;;;;0.00;0.00;;;6.80;99.90;;;;;;5048190;28;20029;-75
2023/11/24 03:28:16;;;;;;;0.10;0.10;;;6.80;99.90;;;;;;5042016;28;20844;-75
2023/11/24 03:30:42;;;;;;;0.10;0.10;;;6.80;99.90;;;;;;5047236;28;20024;-76
2023/11/24 03:33:09;;;;;;;0.10;0.10;;;6.80;99.90;;;;;;5048367;28;20033;-76
2023/11/24 03:35:35;;;;;;;0.10;0.10;;;6.90;99.90;;;;;;5048536;28;20946;-76
2023/11/24 03:38:00;;;;;;;0.10;0.10;;;6.90;99.90;;;;;;5037847;28;20033;-76
2023/11/24 03:40:26;;;;;;;0.10;0.10;;;6.90;99.90;;;;;;5046009;28;20029;-76
2023/11/24 03:42:51;;;;;;;0.10;0.10;;;6.90;99.90;;;;;;5042703;28;20318;-76
2023/11/24 03:45:17;;;;;;;0.10;0.10;;;6.90;99.90;;;;;;5041285;28;20628;-75
2023/11/24 03:47:43;;;;;;;0.05;0.05;;;6.90;99.90;;;;;;5043887;28;20036;-76
2023/11/24 03:50:10;;;;;;;8.57;3.15;;;7.00;99.90;;;;;;5048473;28;20032;-76
2023/11/24 03:52:36;;;;;;;0.10;0.10;;;6.90;99.90;;;;;;5048037;28;20032;-76
2023/11/24 03:55:03;;;;;;;0.10;0.10;;;6.80;99.90;;;;;;5045679;28;20037;-75
2023/11/24 03:57:29;;;;;;;0.10;0.10;;;6.60;99.90;;;;;;5042766;28;20025;-76
2023/11/24 03:59:54;;;;;;;0.10;0.10;;;6.40;99.90;;;;;;5048107;28;20040;-76
2023/11/24 04:02:20;;;;;;;0.10;0.10;;;6.50;99.90;;;;;;5041069;28;20024;-75
2023/11/24 04:04:48;;;;;;;0.10;0.10;;;6.50;99.90;;;;;;5042612;28;20082;-75
2023/11/24 04:07:15;;;;;;;0.10;0.10;;;6.40;99.90;;;;;;5044635;28;20025;-75
2023/11/24 04:09:41;;;;;;;0.10;0.10;;;6.50;99.90;;;;;;5041921;28;20036;-76
2023/11/24 04:12:07;;;;;;;0.10;0.10;;;6.50;99.90;;;;;;5047775;28;20044;-76
2023/11/24 04:14:32;;;;;;;0.10;0.10;;;6.50;99.90;;;;;;5046938;28;20037;-75
2023/11/24 04:16:58;;;;;;;0.10;0.10;;;6.40;99.90;;;;;;5044851;28;20025;-76
2023/11/24 04:19:24;;;;;;;0.10;0.10;;;6.50;99.90;;;;;;5032871;28;20498;-75
2023/11/24 04:21:50;;;;;;;0.20;0.20;;;6.60;99.90;;;;;;5036590;28;20696;-75
2023/11/24 04:24:15;;;;;;;0.20;0.20;;;6.60;99.90;;;;;;5042743;28;20025;-76
2023/11/24 04:26:41;;;;;;;0.10;0.10;;;6.70;99.90;;;;;;5047175;28;20037;-76
2023/11/24 04:29:07;;;;;;;0.10;0.10;;;6.70;99.90;;;;;;5042643;28;20036;-75
2023/11/24 04:31:32;;;;;;;0.10;0.10;;;6.70;99.90;;;;;;5039487;28;20039;-75
2023/11/24 04:33:59;;;;;;;0.10;0.10;;;6.70;99.90;;;;;;5045735;28;20033;-75
2023/11/24 04:36:25;;;;;;;;;;;6.70;99.90;;;;;;5040817;28;20075;-75
2023/11/24 04:38:51;;;;;;;0.10;0.10;;;6.70;99.90;;;;;;5045475;28;19916;-75
2023/11/24 04:41:16;;;;;;;0.10;0.10;;;6.70;99.90;;;;;;5042146;28;20056;-75
2023/11/24 04:43:42;;;;;;;0.10;0.10;;;6.70;99.90;;;;;;5042777;28;20041;-75
2023/11/24 04:46:09;;;;;;;0.10;0.10;;;6.70;99.90;;;;;;5043789;28;20400;-74
2023/11/24 04:48:37;;;;;;;0.10;0.10;;;6.70;99.90;;;;;;5044932;28;20025;-74
2023/11/24 04:51:04;;;;;;;0.10;0.10;;;6.70;99.90;;;;;;5041152;28;20589;-75
2023/11/24 04:53:30;;;;;;;0.10;0.10;;;6.80;99.90;;;;;;5044014;28;20028;-75
2023/11/24 04:55:56;;;;;;;0.10;0.10;;;6.80;99.90;;;;;;5047237;28;20033;-75
2023/11/24 04:58:22;;;;;;;0.10;0.10;;;6.70;99.90;;;;;;5046751;28;20051;-76
2023/11/24 05:00:47;;;;;;;0.10;0.10;;;6.70;99.90;;;;;;5037614;28;20065;-76
2023/11/24 05:03:13;;;;;;;0.10;0.10;;;6.80;99.90;;;;;;5040943;28;20029;-74
2023/11/24 05:05:39;;;;;;;0.10;0.10;;;6.80;99.90;;;;;;5042483;28;20037;-75
2023/11/24 05:08:05;;;;;;;0.10;0.10;;;6.80;99.90;;;;;;5038826;28;20598;-75
2023/11/24 05:10:30;;;;;;;0.20;0.20;;;6.70;99.90;;;;;;5046603;28;20025;-75
2023/11/24 05:12:56;;;;;;;0.10;0.10;;;6.80;99.90;;;;;;5045988;28;20033;-75
2023/11/24 05:15:21;;;;;;;0.10;0.10;;;6.80;99.90;;;;;;5046395;28;20037;-74
2023/11/24 05:17:47;;;;;;;0.00;0.00;;;6.70;99.90;;;;;;5044566;28;20036;-75
2023/11/24 05:20:14;;;;;;;0.10;0.10;;;6.90;99.90;;;;;;5036015;28;20041;-75
2023/11/24 05:22:40;;;;;;;0.10;0.10;;;6.90;99.90;;;;;;5042451;28;20146;-74
2023/11/24 05:25:07;;;;;;;0.10;0.10;;;7.00;99.90;;;;;;5046880;28;20029;-74
2023/11/24 05:27:33;;;;;;;0.13;0.13;;;7.00;99.90;;;;;;5044981;28;20063;-74
2023/11/24 05:29:58;;;;;;;0.10;0.10;;;6.90;99.90;;;;;;5040057;28;20031;-75
2023/11/24 05:32:24;;;;;;;0.10;0.10;;;6.90;99.90;;;;;;5045802;28;20547;-75
2023/11/24 05:34:53;;;;;;;0.10;0.10;;;6.90;99.90;;;;;;5044278;28;20123;-75
2023/11/24 05:37:19;;;;;;;0.10;0.10;;;6.90;99.90;;;;;;5045421;28;20021;-75
2023/11/24 05:39:45;;;;;;;0.10;0.10;;;7.00;99.90;;;;;;5043793;28;20124;-76
2023/11/24 05:42:10;;;;;;;0.20;0.20;;;6.90;99.90;;;;;;5038419;28;20482;-83
2023/11/24 05:44:37;;;;;;;0.10;0.10;;;7.00;99.90;;;;;;5045034;28;20487;-77
2023/11/24 05:47:05;;;;;;;0.10;0.10;;;7.00;99.90;;;;;;5044141;28;20039;-77
2023/11/24 05:49:33;;;;;;;0.10;0.10;;;7.10;99.90;;;;;;5039264;28;20086;-78
2023/11/24 05:51:59;;;;;;;0.10;0.10;;;7.00;99.90;;;;;;5043219;28;20025;-77
2023/11/24 05:54:25;;;;;;;0.57;0.55;;;7.00;99.90;;;;;;5043969;28;20576;-76
2023/11/24 05:56:51;;;;;;;0.10;0.10;;;7.00;99.90;;;;;;5041443;28;20582;-77
2023/11/24 05:59:17;;;;;;;0.10;0.10;;;7.00;99.90;;;;;;5049546;28;20462;-78
2023/11/24 06:01:43;;;;;;;0.10;0.10;;;7.10;99.90;;;;;;5050417;28;20521;-77
2023/11/24 06:04:09;;;;;;;0.10;0.10;;;7.00;99.90;;;;;;5038248;28;20037;-78
2023/11/24 06:06:35;;;;;;;2.22;2.08;;;6.90;99.90;;;;;;5045636;28;20824;-77
2023/11/24 06:09:02;;;;;;;1.60;1.50;;;6.90;99.90;;;;;;5039856;28;20028;-76
2023/11/24 06:11:28;;;;;;;0.10;0.10;;;6.80;99.90;;;;;;5042064;28;20586;-77
2023/11/24 06:13:54;;;;;;;0.10;0.10;;;6.90;99.90;;;;;;5042122;28;20116;-78
2023/11/24 06:16:20;;;;;;;0.10;0.10;;;7.00;99.90;;;;;;5045130;28;20029;-76
2023/11/24 06:18:46;;;;;;;0.10;0.10;;;7.10;99.90;;;;;;5039030;28;20036;-78
2023/11/24 06:21:12;;;;;;;0.10;0.10;;;7.10;99.90;;;;;;5041583;28;20052;-78
2023/11/24 06:23:46;;;;;;;0.10;0.10;;;7.20;99.90;;;;;;5035950;28;20472;-77
2023/11/24 06:26:11;;;;;;;0.10;0.10;;;7.10;99.90;;;;;;5040812;28;20096;-78
2023/11/24 06:28:38;;;;;;;0.10;0.10;;;7.10;99.90;;;;;;5044583;28;20052;-77
2023/11/24 06:31:04;;;;;;;0.10;0.10;;;7.20;99.90;;;;;;5044413;28;20111;-78
2023/11/24 06:33:30;;;;;;;0.10;0.10;;;7.20;99.90;;;;;;5043128;28;20041;-78
2023/11/24 06:35:56;;;;;;;0.10;0.10;;;7.20;99.90;;;;;;5053001;28;20058;-78
2023/11/24 06:38:22;;;;;;;0.10;0.10;;;7.20;99.90;;;;;;5043328;28;20053;-78
2023/11/24 06:40:48;;;;;;;0.10;0.10;;;7.30;99.90;;;;;;5042124;28;20580;-78
2023/11/24 06:43:13;;;;;;;0.10;0.10;;;7.20;99.90;;;;;;5046306;28;20102;-77
2023/11/24 06:45:39;;;;;;;0.10;0.10;;;7.30;99.90;;;;;;5048299;28;20391;-77
2023/11/24 06:48:05;;;;;;;0.05;0.05;;;7.30;99.90;;;;;;5045886;28;20035;-78
2023/11/24 06:50:31;;;;;;;0.10;0.10;;;7.20;99.90;;;;;;5047135;28;20665;-78
2023/11/24 06:52:57;;;;;;;0.10;0.10;;;7.20;99.90;;;;;;5042694;28;20117;-77
2023/11/24 06:55:23;;;;;;;0.10;0.10;;;7.20;99.90;;;;;;5039603;28;20352;-77
2023/11/24 06:57:48;;;;;;;0.03;0.03;;;7.20;99.90;;;;;;5048666;28;20025;-76
2023/11/24 07:00:17;;;;;;;0.10;0.10;;;7.20;99.90;;;;;;5036537;28;20551;-76
2023/11/24 07:02:44;;;;;;;0.10;0.10;;;7.30;99.90;;;;;;5036739;28;20033;-76
2023/11/24 07:05:10;;;;;;;0.10;0.10;;;7.30;99.90;;;;;;5048775;28;20107;-76
2023/11/24 07:07:36;;;;;;;0.10;0.10;;;7.30;99.90;;;;;;5048952;28;20041;-76
2023/11/24 07:10:02;;;;;;;0.10;0.10;;;7.20;99.90;;;;;;5047894;28;20592;-78
2023/11/24 07:12:27;;;;;;;0.10;0.10;;;7.20;99.90;;;;;;5036215;28;20427;-77
2023/11/24 07:14:53;;;;;;;0.10;0.10;;;7.30;99.90;;;;;;5048984;28;20025;-76
2023/11/24 07:17:19;;;;;;;0.25;0.25;;;7.40;99.90;;;;;;5046348;28;20047;-76
2023/11/24 07:19:44;;;;;;;0.10;0.10;;;7.40;99.90;;;;;;5048087;28;20095;-76
2023/11/24 07:22:11;;;;;;;0.52;0.52;;;7.40;99.90;;;;;;5046328;28;20072;-75
2023/11/24 07:24:38;;;;;;;0.10;0.10;;;7.40;99.90;;;;;;5048884;28;20559;-76
2023/11/24 07:27:04;;;;;;;;;;;7.40;99.90;;;;;;5043001;28;20086;-75
2023/11/24 07:29:30;;;;;;;0.10;0.10;;;7.30;99.90;;;;;;5048520;28;19909;-76
2023/11/24 07:31:55;;;;;;;0.10;0.10;;;7.40;99.90;;;;;;5047915;28;20040;-76
2023/11/24 07:34:21;;;;;;;0.10;0.10;;;7.40;99.90;;;;;;5048899;28;20484;-76
2023/11/24 07:36:47;;;;;;;0.10;0.10;;;7.40;99.90;;;;;;5047909;28;20051;-76
2023/11/24 07:39:12;;;;;;;0.10;0.10;;;7.40;99.90;;;;;;5049021;28;20112;-76
2023/11/24 07:41:38;;;;;;;0.10;0.10;;;7.30;99.90;;;;;;5048811;28;20109;-76
2023/11/24 07:44:04;;;;;;;1.27;0.90;;;7.30;99.90;;;;;;5049118;28;20906;-76
2023/11/24 07:46:29;;;;;;;0.10;0.10;;;7.30;99.90;;;;;;5048930;28;20024;-76
2023/11/24 07:48:55;;;;;;;0.10;0.10;;;7.30;99.90;;;;;;5047134;28;20033;-76
2023/11/24 07:51:21;;;;;;;0.10;0.10;;;7.40;99.90;;;;;;5049233;28;20025;-75
2023/11/24 07:53:47;;;;;;;0.10;0.10;;;7.40;99.90;;;;;;5047688;28;20028;-76
2023/11/24 07:56:13;;;;;;;0.88;0.85;;;7.50;99.90;;;;;;5049262;28;20043;-76
2023/11/24 07:58:39;;;;;;;0.10;0.10;;;7.60;99.90;;;;;;5048082;28;20066;-75
2023/11/24 08:01:05;;;;;;;0.10;0.10;;;7.60;99.90;;;;;;5047148;28;20017;-76
2023/11/24 08:03:32;;;;;;;0.10;0.10;;;7.70;99.90;;;;;;5046639;28;20025;-76
2023/11/24 08:06:06;;;;;;;0.10;0.10;;;7.80;99.90;;;;;;5047319;28;20031;-76
2023/11/24 08:08:32;;;;;;;0.00;0.00;;;7.80;99.90;;;;;;5048042;28;20025;-75
2023/11/24 08:10:57;;;;;;;0.10;0.10;;;7.80;99.90;;;;;;5048155;28;20018;-75
2023/11/24 08:13:23;;;;;;;0.10;0.10;;;7.70;99.90;;;;;;5047817;28;20032;-75
2023/11/24 08:15:49;;;;;;;0.10;0.10;;;7.70;99.90;;;;;;5046282;28;20899;-76
2023/11/24 08:18:14;;;;;;;0.10;0.10;;;7.70;99.90;;;;;;5047557;28;20514;-76
2023/11/24 08:20:41;;;;;;;0.10;0.10;;;7.80;99.90;;;;;;5048602;28;20496;-76
2023/11/24 08:23:07;;;;;;;0.20;0.20;;;7.90;99.90;;;;;;5045770;28;20036;-76
2023/11/24 08:25:34;;;;;;;0.10;0.10;;;7.90;99.90;;;;;;5051137;28;20259;-76
2023/11/24 08:28:00;;;;;;;0.10;0.10;;;7.90;99.90;;;;;;5046129;28;20033;-75
2023/11/24 08:30:26;;;;;;;0.20;0.20;;;8.00;99.90;;;;;;5049990;28;20029;-76
2023/11/24 08:32:51;;;;;;;0.10;0.10;;;8.00;99.90;;;;;;5049611;28;20064;-76
2023/11/24 08:35:17;;;;;;;0.10;0.10;;;7.90;99.90;;;;;;5047418;28;20025;-76
2023/11/24 08:37:43;;;;;;;0.10;0.10;;;7.80;99.90;;;;;;5047241;28;20036;-76
2023/11/24 08:40:14;;;;;;;0.10;0.10;;;7.90;99.90;;;;;;5047640;28;20032;-76
2023/11/24 08:42:40;;;;;;;0.10;0.10;;;8.00;99.90;;;;;;5047308;28;20072;-76
2023/11/24 08:45:07;;;;;;;0.03;0.03;;;8.00;99.90;;;;;;5047728;28;20082;-76
2023/11/24 08:47:32;;;;;;;0.10;0.10;;;8.10;99.90;;;;;;5046912;28;20017;-76
2023/11/24 08:49:58;;;;;;;0.05;0.05;;;8.20;99.90;;;;;;5056121;28;20041;-76
2023/11/24 08:52:23;;;;;;;9.68;3.00;;;8.20;99.90;;;;;;5055919;28;20029;-76
2023/11/24 08:54:49;;;;;;;0.10;0.10;;;8.20;99.90;;;;;;5052042;28;20024;-75
2023/11/24 08:57:16;;;;;;;0.10;0.10;;;8.30;99.90;;;;;;5049228;28;20672;-76
2023/11/24 08:59:42;;;;;;;0.08;0.08;;;8.30;99.90;;;;;;5049890;28;20032;-76
2023/11/24 09:02:08;;;;;;;0.10;0.10;;;8.30;99.90;;;;;;5060597;28;20028;-76
2023/11/24 09:04:34;;;;;;;0.10;0.10;;;8.30;99.90;;;;;;5044190;28;20527;-76
2023/11/24 09:07:00;;;;;;;0.10;0.10;;;8.30;99.90;;;;;;5046480;28;20033;-76
2023/11/24 09:09:27;;;;;;;0.40;0.40;;;8.30;99.90;;;;;;5050865;28;20046;-75
2023/11/24 09:11:53;;;;;;;0.30;0.30;;;8.30;99.90;;;;;;5051191;28;20086;-76
2023/11/24 09:14:18;;;;;;;0.10;0.10;;;8.30;99.90;;;;;;5046786;28;20037;-76
2023/11/24 09:16:44;;;;;;;0.00;0.00;;;8.40;99.90;;;;;;5047036;28;20029;-76
2023/11/24 09:19:11;;;;;;;0.10;0.10;;;8.40;99.90;;;;;;5045941;28;20065;-75
2023/11/24 09:21:37;;;;;;;0.10;0.10;;;8.40;99.90;;;;;;5053459;28;20109;-76
2023/11/24 09:24:03;;;;;;;0.20;0.20;;;8.50;99.90;;;;;;5046776;28;20100;-75
2023/11/24 09:26:29;;;;;;;0.10;0.10;;;8.60;99.90;;;;;;5051009;28;20025;-76
2023/11/24 09:28:55;;;;;;;0.00;0.00;;;8.50;99.90;;;;;;5050667;28;20055;-75
2023/11/24 09:31:21;;;;;;;0.08;0.08;;;8.60;99.90;;;;;;5046480;28;20128;-76
2023/11/24 09:33:48;;;;;;;0.10;0.10;;;8.70;99.90;;;;;;5050439;28;20495;-76
2023/11/24 09:36:14;;;;;;;0.10;0.10;;;8.70;99.90;;;;;;5046803;28;20037;-76
2023/11/24 09:38:39;;;;;;;0.20;0.20;;;8.70;99.90;;;;;;5048890;28;20330;-76
2023/11/24 09:41:11;;;;;;;0.10;0.10;;;8.60;99.90;;;;;;5051884;28;20074;-76
2023/11/24 09:43:39;;;;;;;0.10;0.10;;;8.70;99.90;;;;;;5053766;28;20067;-75
2023/11/24 09:46:06;;;;;;;0.95;0.95;;;8.70;99.90;;;;;;5051681;28;20017;-76
2023/11/24 09:48:33;;;;;;;0.10;0.10;;;8.70;99.90;;;;;;5050922;28;20049;-76
2023/11/24 09:51:05;;;;;;;0.20;0.20;;;8.70;99.90;;;;;;5046698;28;20032;-76
2023/11/24 09:53:35;;;;;;;0.10;0.10;;;8.80;99.90;;;;;;5055169;28;20140;-76
2023/11/24 09:56:02;;;;;;;0.10;0.10;;;8.80;99.90;;;;;;5046564;28;20096;-76
2023/11/24 09:58:31;;;;;;;0.10;0.10;;;8.80;99.90;;;;;;5049756;28;20029;-76
2023/11/24 10:01:15;;;;;;;0.10;0.10;;;8.90;99.90;;;;;;5051259;28;20112;-76
2023/11/24 10:03:46;;;;;;;0.10;0.10;;;8.80;99.90;;;;;;5046661;28;20025;-76
2023/11/24 10:06:13;;;;;;;0.10;0.10;;;8.80;99.90;;;;;;5044960;28;20035;-76
2023/11/24 10:08:38;;;;;;;;;;;9.00;99.90;;;;;;5046416;28;20072;-76
2023/11/24 10:11:13;;;;;;;0.10;0.10;;;9.00;99.90;;;;;;5050844;28;19944;-75
2023/11/24 10:13:45;;;;;;;0.20;0.20;;;9.00;99.90;;;;;;5041694;28;20029;-76
2023/11/24 10:16:12;;;;;;;0.10;0.10;;;9.00;99.90;;;;;;5048479;28;20037;-76
2023/11/24 10:18:39;;;;;;;0.28;0.28;;;9.00;99.90;;;;;;5052944;28;20025;-76
2023/11/24 10:21:09;;;;;;;;;;;9.00;99.90;;;;;;5048172;28;20086;-76
2023/11/24 10:23:35;;;;;;;0.10;0.10;;;8.90;99.90;;;;;;5052781;28;19908;-76
2023/11/24 10:26:01;;;;;;;0.10;0.10;;;9.00;99.90;;;;;;5048767;28;20035;-76
2023/11/24 10:28:27;;;;;;;0.10;0.10;;;8.90;99.90;;;;;;5053381;28;20657;-76
2023/11/24 10:30:56;;;;;;;0.10;0.10;;;8.90;99.90;;;;;;5049808;28;20068;-76
2023/11/24 10:33:24;;;;;;;0.10;0.10;;;8.80;99.90;;;;;;5049638;28;20268;-75
2023/11/24 10:35:52;;;;;;;0.10;0.10;;;8.90;99.90;;;;;;5048248;28;20108;-75
2023/11/24 10:38:20;;;;;;;0.08;0.08;;;8.90;99.90;;;;;;5049230;28;20033;-76
2023/11/24 10:40:50;;;;;;;0.10;0.10;;;9.00;99.90;;;;;;5052688;28;20035;-76
2023/11/24 10:43:19;;;;;;;0.10;0.10;;;9.00;99.90;;;;;;5051191;28;20515;-76
2023/11/24 10:45:49;;;;;;;0.10;0.10;;;8.90;99.90;;;;;;5049953;28;20059;-76
2023/11/24 10:48:19;;;;;;;0.38;0.30;;;8.90;99.90;;;;;;5051846;28;20960;-76
2023/11/24 10:50:58;;;;;;;0.10;0.10;;;8.90;99.90;;;;;;5047879;28;20044;-76
2023/11/24 10:53:35;;;;;;;0.10;0.10;;;8.90;99.90;;;;;;5046279;28;20103;-76
2023/11/24 10:56:04;;;;;;;0.10;0.10;;;9.10;99.90;;;;;;5045247;28;20040;-76
2023/11/24 10:58:32;;;;;;;0.15;0.15;;;9.00;99.90;;;;;;5050678;28;20029;-76
2023/11/24 11:00:58;;;;;;;0.22;0.22;;;9.00;99.90;;;;;;5048128;28;20029;-76
2023/11/24 11:03:25;;;;;;;0.10;0.10;;;9.00;99.90;;;;;;5051854;28;20037;-76
2023/11/24 11:05:57;;;;;;;;;;;9.00;99.90;;;;;;5051052;28;20036;-76
2023/11/24 11:08:37;;;;;;;0.05;0.05;;;9.10;99.90;;;;;;5049470;28;19919;-76
2023/11/24 11:11:39;;;;;;;1.98;1.88;;;9.10;99.90;;;;;;5049953;28;20029;-76
2023/11/24 11:13:57;;;;;;;0.28;0.28;;;9.20;99.90;;;;;;5046243;28;20123;-76
2023/11/24 11:16:23;;;;;;;0.10;0.10;;;9.40;99.90;;;;;;5047523;28;20040;-76
2023/11/24 11:18:49;;;;;;;0.10;0.10;;;9.60;99.90;;;;;;5048504;28;20475;-76
2023/11/24 11:21:30;;;;;;;0.10;0.10;;;9.70;99.90;;;;;;5048101;28;20425;-76
2023/11/24 11:23:57;;;;;;;0.10;0.10;;;9.80;99.90;;;;;;5051543;28;20031;-76
2023/11/24 11:26:49;;;;;;;0.10;0.10;;;9.80;99.90;;;;;;5048897;28;20033;-76
2023/11/24 11:29:32;;;;;;;0.00;0.00;;;9.90;99.90;;;;;;5048649;28;20029;-75
2023/11/24 11:31:57;;;;;;;0.00;0.00;;;9.90;99.90;;;;;;5049888;28;20029;-75
2023/11/24 11:34:29;;;;;;;0.10;0.10;;;9.80;99.90;;;;;;5050637;28;20533;-76
2023/11/24 11:37:13;;;;;;;0.00;0.00;;;9.60;99.90;;;;;;5050968;28;20028;-76
2023/11/24 11:39:58;;;;;;;0.10;0.10;;;9.30;99.90;;;;;;5048494;28;20032;-76
2023/11/24 11:42:31;;;;;;;0.10;0.10;;;9.30;99.90;;;;;;5048815;28;20041;-75
2023/11/24 11:45:09;;;;;;;0.08;0.08;;;9.30;99.90;;;;;;5051614;28;20111;-76
2023/11/24 11:47:47;;;;;;;0.10;0.10;;;9.40;99.90;;;;;;5047568;28;20040;-75
2023/11/24 11:50:24;;;;;;;0.00;0.00;;;9.50;99.90;;;;;;5049033;28;20050;-75
2023/11/24 11:52:50;;;;;;;0.05;0.05;;;9.50;99.90;;;;;;5048176;28;20037;-76
2023/11/24 11:55:20;;;;;;;0.03;0.03;;;9.50;99.90;;;;;;5049516;28;20064;-76
2023/11/24 11:57:53;;;;;;;1.75;1.65;;;9.40;99.90;;;;;;5046720;28;20033;-76
2023/11/24 12:00:29;;;;;;;0.10;0.10;;;9.40;99.90;;;;;;5049788;28;20036;-76
2023/11/24 12:02:56;;;;;;;0.10;0.10;;;9.40;99.90;;;;;;5048634;28;20116;-76
2023/11/24 12:05:22;;;;;;;0.20;0.20;;;9.40;99.90;;;;;;5052468;28;20085;-76
2023/11/24 12:07:48;;;;;;;0.00;0.00;;;9.50;99.90;;;;;;5047671;28;20033;-76
2023/11/24 12:10:14;;;;;;;0.10;0.10;;;9.70;99.90;;;;;;5048236;28;20039;-76
2023/11/24 12:12:44;;;;;;;22.67;3.53;;;9.80;99.90;;;;;;5039820;28;20032;-76
2023/11/24 12:15:10;;;;;;;0.10;0.10;;;9.80;99.90;;;;;;5050714;28;20033;-76
2023/11/24 12:17:37;;;;;;;0.00;0.00;;;9.80;99.90;;;;;;5047950;28;20701;-76
2023/11/24 12:20:10;;;;;;;2.13;1.80;;;9.80;99.90;;;;;;5046847;28;20025;-76
2023/11/24 12:22:37;;;;;;;0.00;0.00;;;9.70;99.90;;;;;;5046228;28;20464;-75
2023/11/24 12:25:04;;;;;;;0.30;0.30;;;10.00;99.90;;;;;;5047769;28;20021;-76
2023/11/24 12:27:30;;;;;;;;;;;10.00;99.90;;;;;;5050212;28;20021;-75
2023/11/24 12:29:56;;;;;;;0.00;0.00;;;10.00;99.90;;;;;;5050979;28;19908;-75
2023/11/24 12:32:24;;;;;;;0.90;0.90;;;10.00;99.90;;;;;;5051059;28;20111;-76
2023/11/24 12:34:50;;;;;;;0.00;0.00;;;9.90;99.90;;;;;;5046056;28;20033;-76
2023/11/24 12:37:16;;;;;;;0.40;0.40;;;10.10;99.90;;;;;;5050650;28;20033;-76
2023/11/24 12:39:42;;;;;;;0.00;0.00;;;9.90;99.90;;;;;;5051006;28;20590;-76
2023/11/24 12:42:08;;;;;;;0.10;0.10;;;10.00;99.90;;;;;;5047248;28;20056;-76
2023/11/24 12:44:34;;;;;;;0.05;0.05;;;9.90;99.90;;;;;;5047197;28;20028;-76
2023/11/24 12:47:13;;;;;;;0.00;0.00;;;9.90;99.90;;;;;;5050384;28;20024;-76
2023/11/24 12:50:02;;;;;;;0.10;0.10;;;9.80;99.90;;;;;;5044034;28;20021;-75
2023/11/24 12:52:32;;;;;;;0.10;0.10;;;9.80;99.90;;;;;;5045412;28;20036;-75
2023/11/24 12:54:58;;;;;;;0.10;0.10;;;10.00;99.90;;;;;;5043865;28;20041;-76
2023/11/24 12:57:25;;;;;;;0.10;0.10;;;9.70;99.90;;;;;;5050243;28;20099;-76